Time;durP1;ratioP1;P1;durP2;ratioP2;P2;SDS_P1;SDS_P2;PMS_P1;PMS_P2;Temp;Humidity;BMP_temperature;BMP_pressure;BME280_temperature;BME280_humidity;BME280_pressure;Samples;Min_cycle;Max_cycle;Signal;HPM_P1;HPM_P2
2022/01/10 00:02:25;;;;;;;8.68;2.75;;;;;;;4.76;62.25;100643.84;5049839;28;20056;-80
2022/01/10 00:04:52;;;;;;;6.35;3.40;;;;;;;4.87;60.94;100641.31;5050289;28;20049;-80
2022/01/10 00:07:18;;;;;;;6.18;2.90;;;;;;;5.05;62.18;100648.16;5031998;28;20037;-80
2022/01/10 00:09:43;;;;;;;11.52;2.90;;;;;;;4.79;61.94;100656.72;5045301;28;20041;-80
2022/01/10 00:12:09;;;;;;;6.55;2.78;;;;;;;5.18;60.88;100652.44;5048636;28;20140;-80
2022/01/10 00:14:35;;;;;;;5.97;2.67;;;;;;;4.79;61.38;100649.00;5040018;28;20082;-79
2022/01/10 00:17:01;;;;;;;5.50;2.88;;;;;;;4.75;60.78;100655.03;5040502;28;20556;-80
2022/01/10 00:19:26;;;;;;;5.43;2.65;;;;;;;4.63;61.93;100659.28;5030227;28;20115;-80
2022/01/10 00:21:52;;;;;;;5.85;2.45;;;;;;;4.68;60.93;100660.16;5043492;28;20548;-80
2022/01/10 00:24:17;;;;;;;8.82;2.95;;;;;;;4.81;61.46;100662.75;5041606;28;20489;-80
2022/01/10 00:26:43;;;;;;;6.10;2.60;;;;;;;4.86;60.21;100658.47;5041594;28;20036;-80
2022/01/10 00:29:08;;;;;;;4.90;3.03;;;;;;;4.82;60.53;100666.19;5029608;28;20066;-80
2022/01/10 00:31:33;;;;;;;7.22;2.70;;;;;;;4.72;60.70;100670.47;5044764;28;20037;-80
2022/01/10 00:33:59;;;;;;;6.63;3.30;;;;;;;5.24;59.33;100665.31;5025809;28;20082;-80
2022/01/10 00:36:25;;;;;;;9.00;2.78;;;;;;;4.68;61.81;100671.31;5055850;28;20037;-80
2022/01/10 00:38:52;;;;;;;8.23;2.92;;;;;;;4.91;59.87;100663.63;5051622;28;20037;-80
2022/01/10 00:41:17;;;;;;;8.07;3.33;;;;;;;4.77;61.62;100673.03;5047640;28;20687;-80
2022/01/10 00:43:46;;;;;;;7.93;3.00;;;;;;;4.99;59.68;100667.06;5047639;28;20091;-80
2022/01/10 00:46:12;;;;;;;7.25;2.92;;;;;;;4.64;60.16;100679.03;5048696;28;20386;-79
2022/01/10 00:48:38;;;;;;;11.55;2.85;;;;;;;4.75;59.91;100687.63;5048157;28;20565;-80
2022/01/10 00:51:04;;;;;;;11.63;3.00;;;;;;;4.54;59.74;100683.28;5045005;28;20064;-80
2022/01/10 00:53:29;;;;;;;11.63;3.17;;;;;;;4.34;60.24;100687.53;5028402;28;20033;-80
2022/01/10 00:55:55;;;;;;;12.93;3.33;;;;;;;4.22;60.60;100695.22;5049833;28;20029;-80
2022/01/10 00:58:20;;;;;;;8.77;3.45;;;;;;;4.54;61.04;100698.72;5031945;28;20094;-80
2022/01/10 01:00:46;;;;;;;6.07;2.72;;;;;;;4.60;59.79;100700.44;5043089;28;20103;-80
2022/01/10 01:03:11;;;;;;;4.78;2.65;;;;;;;4.60;60.46;100703.03;5049062;28;20079;-80
2022/01/10 01:05:42;;;;;;;7.15;2.85;;;;;;;4.43;60.57;100704.69;5056035;28;20045;-80
2022/01/10 01:08:09;;;;;;;5.97;2.90;;;;;;;4.14;59.32;100708.00;5047757;28;20037;-80
2022/01/10 01:16:08;;;;;;;8.88;3.00;;;;;;;4.51;60.16;100713.28;5048091;28;20121;-80
2022/01/10 01:24:04;;;;;;;7.95;3.53;;;;;;;4.75;59.59;100724.50;5047629;28;20052;-80
2022/01/10 01:26:32;;;;;;;6.78;2.85;;;;;;;4.45;60.19;100737.28;5015038;28;20032;-80
2022/01/10 01:28:58;;;;;;;6.60;3.08;;;;;;;4.41;59.93;100740.69;5050452;28;20065;-80
2022/01/10 01:31:23;;;;;;;4.90;2.95;;;;;;;4.29;60.75;100751.78;5048593;28;20060;-80
2022/01/10 01:33:49;;;;;;;6.13;3.00;;;;;;;4.63;58.84;100754.47;5049444;28;20024;-80
2022/01/10 01:36:20;;;;;;;5.40;2.58;;;;;;;4.39;61.40;100762.13;5031286;28;20079;-80
2022/01/10 01:38:46;;;;;;;5.13;2.33;;;;;;;4.22;60.04;100765.50;5046745;28;20056;-80
2022/01/10 01:41:22;;;;;;;9.13;3.22;;;;;;;4.48;59.80;100772.44;5045322;28;20025;-80
2022/01/10 01:43:50;;;;;;;13.07;2.88;;;;;;;4.47;60.14;100775.84;5046087;28;20033;-80
2022/01/10 01:46:17;;;;;;;6.82;2.63;;;;;;;4.58;59.45;100779.34;5049107;28;20029;-80
2022/01/10 01:48:43;;;;;;;8.40;2.83;;;;;;;4.40;60.18;100787.00;5043289;28;20198;-80
2022/01/10 01:51:09;;;;;;;6.63;3.92;;;;;;;4.35;60.33;100790.38;5053527;28;20493;-80
2022/01/10 01:53:36;;;;;;;7.00;3.13;;;;;;;4.56;60.75;100792.19;5029824;28;20612;-80
2022/01/10 01:56:04;;;;;;;8.25;2.83;;;;;;;4.27;61.18;100807.50;5048697;28;20662;-80
2022/01/10 01:58:31;;;;;;;6.72;2.95;;;;;;;4.26;61.19;100804.91;5035490;28;20100;-80
2022/01/10 02:00:57;;;;;;;7.22;2.83;;;;;;;4.05;62.24;100809.91;5029984;28;20029;-80
2022/01/10 02:03:24;;;;;;;6.72;3.22;;;;;;;4.47;61.85;100814.44;5036753;28;20418;-80
2022/01/10 02:05:50;;;;;;;7.57;3.15;;;;;;;4.17;62.81;100816.00;5042937;28;20041;-80
2022/01/10 02:08:16;;;;;;;6.90;3.33;;;;;;;4.46;62.72;100816.19;5030015;28;20053;-80
2022/01/10 02:10:42;;;;;;;10.13;3.88;;;;;;;4.58;63.08;100817.94;5038439;28;20042;-80
2022/01/10 02:13:07;;;;;;;5.53;2.47;;;;;;;4.39;62.94;100817.00;5053795;28;20041;-80
2022/01/10 02:15:57;;;;;;;8.93;3.65;;;;;;;4.64;62.92;100826.53;5048634;28;20042;-80
2022/01/10 02:18:23;;;;;;;6.55;2.50;;;;;;;4.68;62.19;100823.09;5047078;28;20267;-75
2022/01/10 02:20:49;;;;;;;7.63;2.90;;;;;;;4.58;62.68;100826.53;5047771;28;20038;-78
2022/01/10 02:23:15;;;;;;;8.40;2.85;;;;;;;4.66;62.11;100829.09;5049827;28;20029;-80
2022/01/10 02:25:42;;;;;;;6.70;2.80;;;;;;;4.94;61.43;100833.47;5036150;28;20043;-80
2022/01/10 02:28:08;;;;;;;6.22;2.67;;;;;;;4.80;62.39;100841.16;5029768;28;20039;-80
2022/01/10 02:30:34;;;;;;;5.20;3.10;;;;;;;4.79;61.33;100843.75;5026110;28;20124;-79
2022/01/10 02:33:01;;;;;;;6.93;2.75;;;;;;;4.91;60.57;100844.63;5045656;28;20033;-80
2022/01/10 02:35:41;;;;;;;6.88;3.30;;;;;;;4.34;62.09;100847.84;5046459;28;20025;-80
2022/01/10 02:38:06;;;;;;;5.78;2.95;;;;;;;4.61;61.91;100857.41;5028073;28;20410;-80
2022/01/10 02:40:33;;;;;;;8.48;3.22;;;;;;;4.81;59.63;100853.19;5051206;28;20037;-80
2022/01/10 02:42:59;;;;;;;7.75;2.78;;;;;;;4.37;61.00;100851.25;5047558;28;20112;-80
2022/01/10 02:45:25;;;;;;;8.40;2.83;;;;;;;4.45;61.68;100865.88;5030065;28;20051;-80
2022/01/10 02:47:51;;;;;;;5.78;2.42;;;;;;;4.17;61.75;100869.13;5044574;28;20039;-80
2022/01/10 02:50:20;;;;;;;8.65;2.80;;;;;;;4.21;61.42;100876.03;5041659;28;20171;-80
2022/01/10 02:52:46;;;;;;;7.72;2.67;;;;;;;4.44;61.12;100877.00;5030558;28;20056;-78
2022/01/10 02:55:13;;;;;;;6.60;3.38;;;;;;;4.41;61.31;100878.69;5046351;28;20516;-78
2022/01/10 02:57:40;;;;;;;4.78;2.42;;;;;;;4.38;60.17;100883.88;5044027;28;20388;-78
2022/01/10 03:00:12;;;;;;;8.35;2.63;;;;;;;4.46;61.42;100885.63;5050497;28;20580;-78
2022/01/10 03:02:38;;;;;;;7.57;2.63;;;;;;;4.56;60.90;100894.22;5047400;28;20048;-78
2022/01/10 03:05:05;;;;;;;9.45;2.83;;;;;;;3.97;61.77;100901.50;5044761;28;20028;-78
2022/01/10 03:07:31;;;;;;;5.05;2.83;;;;;;;4.30;61.04;100901.78;5043565;28;20045;-78
2022/01/10 03:09:57;;;;;;;7.15;2.38;;;;;;;4.49;60.44;100902.78;5047297;28;20032;-78
2022/01/10 03:12:24;;;;;;;5.50;2.67;;;;;;;4.50;59.70;100910.50;5048469;28;20392;-78
2022/01/10 03:14:50;;;;;;;8.00;2.95;;;;;;;4.29;60.33;100912.91;5046645;28;20509;-78
2022/01/10 03:17:15;;;;;;;9.63;3.33;;;;;;;4.02;60.77;100917.84;5043814;28;20072;-78
2022/01/10 03:19:42;;;;;;;4.88;2.58;;;;;;;4.33;60.51;100927.53;5048032;28;20531;-78
2022/01/10 03:22:09;;;;;;;5.43;2.55;;;;;;;4.29;60.61;100925.78;5029383;28;20041;-78
2022/01/10 03:24:35;;;;;;;8.50;2.55;;;;;;;4.59;59.32;100923.41;5043646;28;20067;-78
2022/01/10 03:27:00;;;;;;;7.78;2.90;;;;;;;4.33;59.13;100927.53;5040000;28;20721;-78
2022/01/10 03:29:26;;;;;;;7.28;3.00;;;;;;;4.53;57.83;100933.66;5048549;28;20096;-78
2022/01/10 03:31:52;;;;;;;7.40;2.78;;;;;;;4.24;59.00;100943.75;5044176;28;20032;-78
2022/01/10 03:34:18;;;;;;;8.23;3.10;;;;;;;4.47;58.72;100946.47;5047736;28;20044;-78
2022/01/10 03:36:44;;;;;;;5.03;2.75;;;;;;;4.11;59.18;100951.38;5047224;28;20123;-78
2022/01/10 03:39:11;;;;;;;7.85;2.70;;;;;;;4.14;58.99;100953.97;5050243;28;20033;-78
2022/01/10 03:41:37;;;;;;;6.78;2.67;;;;;;;3.93;59.95;100956.31;5043511;28;20075;-78
2022/01/10 03:44:04;;;;;;;5.65;2.78;;;;;;;4.37;58.90;100957.56;5041555;28;20067;-78
2022/01/10 03:46:32;;;;;;;7.75;2.53;;;;;;;4.06;59.04;100953.91;5044493;28;20028;-78
2022/01/10 03:48:58;;;;;;;7.25;2.70;;;;;;;3.94;59.90;100961.47;5052595;28;20116;-78
2022/01/10 03:51:23;;;;;;;7.22;2.40;;;;;;;4.06;58.77;100960.75;5047211;28;20116;-78
2022/01/10 03:53:49;;;;;;;5.90;2.35;;;;;;;3.97;59.55;100974.34;5032624;28;20032;-78
2022/01/10 03:56:14;;;;;;;6.35;3.05;;;;;;;4.10;59.80;100959.94;5007818;28;20475;-78
2022/01/10 03:58:40;;;;;;;8.82;3.13;;;;;;;4.15;59.66;100971.09;5027619;28;20180;-78
2022/01/10 04:01:08;;;;;;;6.32;3.25;;;;;;;4.00;61.04;100978.66;5041953;28;20044;-78
2022/01/10 04:03:37;;;;;;;7.95;2.70;;;;;;;4.08;60.53;100982.19;5046499;28;20440;-78
2022/01/10 04:06:02;;;;;;;7.15;3.17;;;;;;;4.17;59.54;100980.53;5045524;28;20520;-78
2022/01/10 04:08:27;;;;;;;10.15;2.65;;;;;;;4.15;59.40;100982.25;5029813;28;20037;-78
2022/01/10 04:10:53;;;;;;;10.57;2.60;;;;;;;3.87;59.56;100987.09;5043657;28;20477;-78
2022/01/10 04:13:19;;;;;;;6.82;3.00;;;;;;;3.69;60.04;100988.63;5024757;28;20065;-78
2022/01/10 04:15:44;;;;;;;6.53;2.58;;;;;;;3.70;60.08;100997.19;5047985;28;20225;-78
2022/01/10 04:18:10;;;;;;;9.25;3.00;;;;;;;3.63;60.02;101001.41;5041419;28;20064;-78
2022/01/10 04:20:35;;;;;;;4.65;2.60;;;;;;;3.57;60.53;101003.94;5047189;28;20024;-78
2022/01/10 04:23:01;;;;;;;7.05;2.35;;;;;;;3.41;61.54;101014.00;5033607;28;20029;-78
2022/01/10 04:25:26;;;;;;;6.22;2.40;;;;;;;3.85;60.38;101019.63;5034126;28;20076;-78
2022/01/10 04:27:52;;;;;;;5.43;2.67;;;;;;;3.82;60.54;101030.72;5046881;28;20039;-78
2022/01/10 04:30:17;;;;;;;6.78;2.78;;;;;;;4.04;59.10;101021.53;5039705;28;20033;-78
2022/01/10 04:32:44;;;;;;;8.77;3.35;;;;;;;3.59;59.99;101035.63;5010685;28;20124;-78
2022/01/10 04:35:10;;;;;;;5.25;2.47;;;;;;;3.74;60.11;101040.06;5041061;28;20029;-78
2022/01/10 04:37:36;;;;;;;8.95;3.47;;;;;;;4.33;58.61;101038.13;5043495;28;20125;-78
2022/01/10 04:40:03;;;;;;;8.57;2.25;;;;;;;3.79;58.98;101053.81;5052555;28;20116;-78
2022/01/10 04:42:28;;;;;;;5.25;2.17;;;;;;;3.43;60.73;101050.81;5040883;28;20037;-78
2022/01/10 04:44:54;;;;;;;8.32;2.83;;;;;;;3.66;60.63;101060.50;5048556;28;20043;-78
2022/01/10 04:47:19;;;;;;;5.95;2.08;;;;;;;3.42;61.13;101072.22;5023529;28;20128;-78
2022/01/10 04:52:26;;;;;;;4.95;2.53;;;;;;;3.53;61.11;101091.19;5037205;28;20095;-78
2022/01/10 04:54:52;;;;;;;9.45;2.50;;;;;;;3.34;62.17;101102.06;5043542;28;20083;-78
2022/01/10 04:57:17;;;;;;;8.10;2.22;;;;;;;3.75;61.13;101093.19;5042485;28;20434;-78
2022/01/10 04:59:43;;;;;;;7.47;3.00;;;;;;;3.75;60.47;101104.31;5037862;28;20033;-78
2022/01/10 05:02:10;;;;;;;7.07;3.30;;;;;;;3.61;60.58;101105.84;5030468;28;20409;-78
2022/01/10 05:04:36;;;;;;;3.45;1.58;;;;;;;3.59;61.03;101120.38;5051153;28;20449;-78
2022/01/10 05:07:02;;;;;;;5.60;2.45;;;;;;;3.54;61.98;101122.03;5039739;28;20030;-78
2022/01/10 05:09:28;;;;;;;12.30;3.40;;;;;;;3.98;60.62;101122.59;5039246;28;20034;-78
2022/01/10 05:11:53;;;;;;;6.32;2.30;;;;;;;3.75;61.48;101127.44;5044152;28;20658;-78
2022/01/10 05:14:19;;;;;;;7.97;2.63;;;;;;;3.66;61.68;101132.44;5042675;28;20026;-78
2022/01/10 05:16:45;;;;;;;6.57;2.60;;;;;;;3.89;60.97;101134.44;5044952;28;20067;-78
2022/01/10 05:19:10;;;;;;;3.45;2.50;;;;;;;3.60;62.27;101137.53;5045757;28;20041;-78
2022/01/10 05:21:36;;;;;;;9.13;2.65;;;;;;;3.89;61.23;101140.47;5043985;28;20036;-78
2022/01/10 05:24:02;;;;;;;5.43;2.28;;;;;;;4.03;61.65;101136.34;5045985;28;20506;-78
2022/01/10 05:26:27;;;;;;;7.50;3.75;;;;;;;3.94;62.45;101153.34;5038394;28;20111;-78
2022/01/10 05:28:55;;;;;;;9.32;2.92;;;;;;;4.04;61.92;101148.34;5031632;28;20021;-78
2022/01/10 05:31:20;;;;;;;7.45;2.80;;;;;;;3.75;61.45;101167.69;5052290;28;20045;-78
2022/01/10 05:33:46;;;;;;;8.98;2.67;;;;;;;3.61;62.73;101176.91;5048640;28;20083;-78
2022/01/10 05:36:12;;;;;;;8.73;2.60;;;;;;;3.73;62.63;101182.22;5057160;28;20082;-78
2022/01/10 05:38:37;;;;;;;8.13;2.33;;;;;;;3.79;62.89;101188.31;5049109;28;20120;-78
2022/01/10 05:41:03;;;;;;;4.70;2.33;;;;;;;3.99;62.86;101191.13;5024243;28;20025;-78
2022/01/10 05:43:28;;;;;;;5.82;2.40;;;;;;;4.08;62.29;101193.00;5050769;28;20472;-78
2022/01/10 05:45:54;;;;;;;8.55;2.55;;;;;;;4.09;62.73;101202.41;5025066;28;20497;-79
2022/01/10 05:48:25;;;;;;;7.30;2.28;;;;;;;4.26;62.87;101206.91;5047531;28;20063;-79
2022/01/10 05:50:50;;;;;;;6.57;2.30;;;;;;;4.37;61.88;101196.75;5036266;28;20044;-79
2022/01/10 05:53:17;;;;;;;6.20;3.65;;;;;;;4.50;61.74;101206.31;5022591;28;20041;-78
2022/01/10 05:55:42;;;;;;;10.77;3.83;;;;;;;4.30;60.87;101215.53;5053798;28;20064;-78
2022/01/10 05:58:08;;;;;;;9.45;6.05;;;;;;;4.26;62.52;101217.19;5045991;28;20072;-78
2022/01/10 06:00:34;;;;;;;8.98;4.50;;;;;;;4.42;62.73;101227.66;5035760;28;20099;-78
2022/01/10 06:03:00;;;;;;;10.70;2.88;;;;;;;4.31;62.73;101242.97;5035531;28;20477;-79
2022/01/10 06:05:30;;;;;;;7.05;2.63;;;;;;;4.40;62.84;101235.38;5017591;28;20064;-78
2022/01/10 06:07:57;;;;;;;5.55;2.22;;;;;;;4.35;62.96;101247.28;5044096;28;20040;-78
2022/01/10 06:10:23;;;;;;;8.00;3.42;;;;;;;4.34;62.79;101256.75;5046241;28;20048;-78
2022/01/10 06:12:48;;;;;;;4.95;2.45;;;;;;;4.34;63.06;101261.91;5044053;28;20030;-78
2022/01/10 06:15:13;;;;;;;11.88;3.10;;;;;;;4.40;63.21;101268.81;5041752;28;20041;-80
2022/01/10 06:17:39;;;;;;;6.25;2.80;;;;;;;4.43;63.43;101276.56;5031772;28;20040;-79
2022/01/10 06:20:05;;;;;;;5.65;3.03;;;;;;;4.43;62.78;101276.56;5036124;28;20032;-79
2022/01/10 06:22:31;;;;;;;8.70;2.92;;;;;;;4.53;62.25;101287.81;5047585;28;20041;-79
2022/01/10 06:24:56;;;;;;;8.43;3.67;;;;;;;4.49;62.80;101297.22;5058269;28;20035;-79
2022/01/10 06:27:22;;;;;;;7.55;2.97;;;;;;;4.45;63.05;101303.16;5045848;28;20048;-79
2022/01/10 06:29:47;;;;;;;4.85;2.75;;;;;;;4.30;64.13;101308.97;5033478;28;20501;-79
2022/01/10 06:32:13;;;;;;;8.32;3.58;;;;;;;4.57;62.54;101315.31;5034070;28;20122;-79
2022/01/10 06:34:38;;;;;;;6.38;3.55;;;;;;;4.44;63.09;101324.56;5032753;28;20037;-79
2022/01/10 06:37:04;;;;;;;10.85;3.88;;;;;;;4.63;63.35;101323.97;5045889;28;20048;-79
2022/01/10 06:39:30;;;;;;;8.45;3.30;;;;;;;4.64;62.66;101327.41;5055695;28;20032;-79
2022/01/10 06:41:55;;;;;;;7.70;3.00;;;;;;;4.40;63.57;101329.69;5046042;28;20032;-76
2022/01/10 06:44:21;;;;;;;6.85;3.35;;;;;;;4.46;63.52;101332.31;5046107;28;20401;-77
2022/01/10 06:46:46;;;;;;;6.05;3.45;;;;;;;4.47;63.75;101336.59;5048745;28;20044;-76
2022/01/10 06:49:12;;;;;;;10.05;3.03;;;;;;;4.52;62.78;101340.13;5026810;28;20044;-76
2022/01/10 06:51:37;;;;;;;5.20;2.83;;;;;;;4.34;63.30;101344.19;5044615;28;20040;-76
2022/01/10 06:54:03;;;;;;;8.82;3.35;;;;;;;4.45;63.36;101341.75;5052545;28;20056;-76
2022/01/10 06:56:28;;;;;;;6.28;3.58;;;;;;;4.50;62.72;101347.81;5040576;28;20033;-76
2022/01/10 06:58:54;;;;;;;7.88;3.97;;;;;;;4.68;62.47;101354.88;5026667;28;20657;-76
2022/01/10 07:01:21;;;;;;;8.07;3.58;;;;;;;4.55;62.44;101360.75;5042894;28;20037;-76
2022/01/10 07:03:47;;;;;;;10.63;3.70;;;;;;;4.57;62.55;101362.50;5038923;28;20049;-76
2022/01/10 07:06:13;;;;;;;9.50;2.90;;;;;;;4.59;61.89;101377.94;5042995;28;20040;-76
2022/01/10 07:08:38;;;;;;;8.52;3.63;;;;;;;4.59;63.11;101375.34;5044930;28;20037;-76
2022/01/10 07:11:04;;;;;;;7.13;3.33;;;;;;;4.70;63.53;101384.09;5020703;28;20017;-76
2022/01/10 07:13:29;;;;;;;8.55;3.65;;;;;;;4.61;63.84;101389.13;5045767;28;20494;-76
2022/01/10 07:15:55;;;;;;;5.68;3.17;;;;;;;4.59;64.08;101396.81;5045705;28;20037;-76
2022/01/10 07:18:20;;;;;;;7.13;3.40;;;;;;;4.66;64.00;101398.63;5018728;28;20082;-76
2022/01/10 07:20:46;;;;;;;6.50;3.00;;;;;;;4.81;62.99;101405.69;5050671;28;20533;-76
2022/01/10 07:23:12;;;;;;;11.48;4.22;;;;;;;4.70;62.94;101402.97;5033962;28;20500;-76
2022/01/10 07:25:38;;;;;;;10.48;3.92;;;;;;;4.56;63.62;101409.63;5009601;28;20032;-76
2022/01/10 07:28:04;;;;;;;6.97;3.83;;;;;;;4.51;63.72;101416.44;5040137;28;20037;-76
2022/01/10 07:30:29;;;;;;;6.30;3.45;;;;;;;4.63;63.82;101426.03;5046351;28;20106;-76
2022/01/10 07:32:54;;;;;;;9.70;3.60;;;;;;;4.55;64.14;101435.34;5042954;28;20409;-76
2022/01/10 07:35:20;;;;;;;8.05;3.53;;;;;;;4.68;63.28;101440.69;5042782;28;20025;-77
2022/01/10 07:37:45;;;;;;;8.23;3.50;;;;;;;4.65;63.73;101450.94;5045936;28;20038;-76
2022/01/10 07:40:11;;;;;;;6.35;3.25;;;;;;;4.72;63.84;101455.34;5027184;28;20033;-76
2022/01/10 07:42:37;;;;;;;5.93;3.05;;;;;;;4.58;63.97;101458.56;5044594;28;20037;-76
2022/01/10 07:45:04;;;;;;;6.65;3.40;;;;;;;4.78;63.88;101462.25;5045235;28;20034;-76
2022/01/10 07:47:30;;;;;;;5.95;3.63;;;;;;;4.81;63.48;101470.03;5036318;28;20448;-76
2022/01/10 07:49:55;;;;;;;8.02;3.47;;;;;;;4.74;62.88;101468.22;5045998;28;20025;-76
2022/01/10 07:52:22;;;;;;;10.38;3.47;;;;;;;4.68;62.17;101465.53;5034290;28;20398;-76
2022/01/10 07:54:48;;;;;;;8.40;3.83;;;;;;;4.69;62.97;101475.00;4974001;28;1169567;-76
2022/01/10 07:57:14;;;;;;;8.40;4.30;;;;;;;4.83;63.35;101478.63;5044191;28;20128;-76
2022/01/10 07:59:40;;;;;;;12.05;4.22;;;;;;;4.94;63.06;101489.09;5023228;28;20629;-76
2022/01/10 08:02:06;;;;;;;7.97;4.28;;;;;;;4.59;63.15;101486.88;5045610;28;20048;-76
2022/01/10 08:04:32;;;;;;;7.93;4.32;;;;;;;4.51;63.03;101495.31;5025373;28;20041;-76
2022/01/10 08:06:57;;;;;;;10.95;4.95;;;;;;;4.59;63.07;101498.88;5047785;28;20064;-76
2022/01/10 08:09:23;;;;;;;12.25;4.75;;;;;;;4.52;63.38;101500.50;5014366;28;20064;-76
2022/01/10 08:11:48;;;;;;;11.20;4.78;;;;;;;4.70;62.92;101505.91;5047109;28;20055;-76
2022/01/10 08:14:14;;;;;;;9.32;4.55;;;;;;;4.74;62.96;101507.69;5044883;28;20032;-76
2022/01/10 08:16:39;;;;;;;9.77;4.53;;;;;;;4.63;62.78;101510.94;5046913;28;20044;-76
2022/01/10 08:19:06;;;;;;;9.25;4.85;;;;;;;4.69;63.17;101517.06;5040578;28;20121;-76
2022/01/10 08:21:32;;;;;;;10.18;5.10;;;;;;;4.61;63.40;101521.22;5044180;28;20040;-76
2022/01/10 08:23:57;;;;;;;10.00;4.85;;;;;;;4.59;63.28;101524.59;5026388;28;20075;-76
2022/01/10 08:26:23;;;;;;;15.38;4.95;;;;;;;4.71;63.42;101533.38;5027487;28;20058;-76
2022/01/10 08:28:49;;;;;;;11.00;4.90;;;;;;;4.70;63.82;101539.34;5044300;28;20028;-76
2022/01/10 08:31:14;;;;;;;15.25;5.20;;;;;;;4.51;64.01;101539.94;5043478;28;20097;-76
2022/01/10 08:33:41;;;;;;;9.95;4.90;;;;;;;4.54;63.90;101542.53;5027407;28;20037;-76
2022/01/10 08:36:07;;;;;;;11.07;4.57;;;;;;;4.56;63.46;101540.84;5048752;28;20040;-76
2022/01/10 08:38:33;;;;;;;8.07;4.65;;;;;;;4.51;63.72;101552.78;5030850;28;20103;-76
2022/01/10 08:40:59;;;;;;;19.27;4.85;;;;;;;4.48;63.41;101557.88;5051275;28;20029;-76
2022/01/10 08:43:24;;;;;;;13.35;4.35;;;;;;;4.62;62.63;101551.25;5044576;28;20036;-76
2022/01/10 08:45:50;;;;;;;10.30;4.45;;;;;;;4.09;63.79;101557.19;5026754;28;20044;-76
2022/01/10 08:48:15;;;;;;;9.30;5.35;;;;;;;4.34;64.02;101564.50;5047465;28;20098;-76
2022/01/10 08:50:41;;;;;;;10.52;4.80;;;;;;;4.41;63.80;101566.31;5044626;28;20071;-76
2022/01/10 08:53:08;;;;;;;8.40;4.13;;;;;;;4.48;62.75;101575.03;5040592;28;20053;-76
2022/01/10 08:55:34;;;;;;;14.50;4.82;;;;;;;4.57;62.51;101581.19;5033603;28;20043;-76
2022/01/10 08:58:01;;;;;;;10.80;4.18;;;;;;;4.40;63.08;101581.75;5045947;28;20042;-76
2022/01/10 09:00:26;;;;;;;7.40;4.38;;;;;;;4.82;62.45;101575.56;5047429;28;20107;-76
2022/01/10 09:02:52;;;;;;;12.65;4.60;;;;;;;4.71;62.58;101578.81;5052974;28;20032;-76
2022/01/10 09:05:18;;;;;;;10.10;5.35;;;;;;;4.52;64.04;101587.09;5047163;28;20033;-77
2022/01/10 09:07:45;;;;;;;8.85;4.70;;;;;;;4.66;62.67;101591.63;5050684;28;20024;-76
2022/01/10 09:10:11;;;;;;;9.93;4.30;;;;;;;4.72;62.72;101598.59;5048007;28;20037;-76
2022/01/10 09:12:38;;;;;;;7.97;5.38;;;;;;;4.68;62.07;101594.22;5031108;28;20557;-76
2022/01/10 09:15:08;;;;;;;9.48;4.88;;;;;;;4.95;62.02;101597.22;5033587;28;20303;-76
2022/01/10 09:17:34;;;;;;;8.85;4.93;;;;;;;4.86;62.49;101597.97;5034599;28;20037;-76
2022/01/10 09:19:59;;;;;;;12.88;5.60;;;;;;;4.83;62.42;101600.47;5039316;28;20091;-76
2022/01/10 09:22:25;;;;;;;11.98;5.13;;;;;;;4.83;62.97;101602.19;5046791;28;20029;-76
2022/01/10 09:24:50;;;;;;;10.88;4.50;;;;;;;4.90;62.40;101612.63;5045882;28;20075;-76
2022/01/10 09:27:16;;;;;;;8.18;4.50;;;;;;;4.70;62.72;101613.16;5025577;28;20091;-76
2022/01/10 09:29:42;;;;;;;7.68;4.50;;;;;;;4.82;63.04;101621.91;5042793;28;20041;-76
2022/01/10 09:32:09;;;;;;;9.77;4.65;;;;;;;4.88;63.15;101627.16;5046019;28;20458;-76
2022/01/10 09:34:35;;;;;;;8.40;4.00;;;;;;;4.90;64.18;101629.78;5047812;28;20029;-76
2022/01/10 09:37:00;;;;;;;12.75;4.75;;;;;;;5.07;63.03;101630.88;5047598;28;20041;-76
2022/01/10 09:39:26;;;;;;;13.32;4.80;;;;;;;5.05;62.92;101642.00;5044808;28;20096;-76
2022/01/10 09:41:52;;;;;;;10.27;5.60;;;;;;;4.81;63.98;101640.78;5047471;28;20083;-76
2022/01/10 09:44:18;;;;;;;14.23;5.22;;;;;;;4.93;63.91;101647.84;5026933;28;20437;-77
2022/01/10 09:46:48;;;;;;;11.32;5.00;;;;;;;5.05;63.34;101642.88;5036406;28;20029;-76
2022/01/10 09:49:15;;;;;;;17.58;7.28;;;;;;;5.02;64.41;101653.13;5041707;28;20509;-76
2022/01/10 09:51:40;;;;;;;59.67;20.80;;;;;;;4.93;63.55;101657.25;5050451;28;20315;-76
2022/01/10 09:54:06;;;;;;;60.58;21.98;;;;;;;4.89;64.19;101664.06;5043510;28;20037;-76
2022/01/10 09:56:31;;;;;;;31.08;12.30;;;;;;;5.02;64.31;101660.00;5044493;28;20036;-76
2022/01/10 09:58:59;;;;;;;15.88;8.35;;;;;;;4.86;65.72;101662.31;5043145;28;20430;-76
2022/01/10 10:01:26;;;;;;;13.50;5.97;;;;;;;5.03;64.22;101667.72;5022032;28;20553;-76
2022/01/10 10:03:54;;;;;;;9.75;5.18;;;;;;;5.23;63.97;101676.66;5032405;28;20134;-76
2022/01/10 10:06:20;;;;;;;11.65;4.78;;;;;;;5.35;64.09;101674.25;5023527;28;20037;-76
2022/01/10 10:08:45;;;;;;;11.25;5.07;;;;;;;5.26;63.78;101674.13;5041279;28;20630;-76
2022/01/10 10:11:12;;;;;;;12.68;4.40;;;;;;;5.30;64.09;101688.75;5043228;28;20029;-76
2022/01/10 10:13:52;;;;;;;8.27;4.20;;;;;;;5.44;63.55;101692.41;5027126;28;20074;-76
2022/01/10 10:16:18;;;;;;;12.73;4.15;;;;;;;5.38;63.75;101694.91;5039288;28;20033;-76
2022/01/10 10:18:46;;;;;;;11.05;4.68;;;;;;;5.42;63.16;101696.66;5036925;28;20585;-76
2022/01/10 10:21:19;;;;;;;13.10;5.32;;;;;;;5.32;64.35;101696.53;5045430;28;20120;-76
2022/01/10 10:23:50;;;;;;;10.80;4.10;;;;;;;5.41;63.70;101697.53;5048092;28;20493;-76
2022/01/10 10:26:25;;;;;;;7.80;4.90;;;;;;;5.40;63.74;101713.81;5046902;28;20497;-76
2022/01/10 10:28:53;;;;;;;11.32;4.78;;;;;;;5.43;63.69;101713.00;5047924;28;20052;-76
2022/01/10 10:31:32;;;;;;;10.57;4.68;;;;;;;5.33;64.33;101708.53;5044248;28;20462;-76
2022/01/10 10:34:04;;;;;;;11.27;4.85;;;;;;;5.29;64.81;101720.53;5042734;28;20029;-76
2022/01/10 10:36:32;;;;;;;9.95;4.22;;;;;;;5.36;64.55;101719.78;5012443;28;20036;-76
2022/01/10 10:39:00;;;;;;;12.18;4.53;;;;;;;5.41;64.90;101720.72;5043064;28;20086;-76
2022/01/10 10:41:25;;;;;;;14.77;4.90;;;;;;;5.39;64.91;101729.25;5038979;28;20071;-76
2022/01/10 10:43:51;;;;;;;13.05;5.10;;;;;;;5.41;64.30;101728.47;5034832;28;20028;-76
2022/01/10 10:46:18;;;;;;;10.18;4.15;;;;;;;5.50;64.76;101729.44;5042461;28;20063;-76
2022/01/10 10:48:48;;;;;;;12.07;4.65;;;;;;;5.51;63.99;101726.00;5025452;28;20040;-76
2022/01/10 10:51:14;;;;;;;10.77;4.60;;;;;;;5.48;64.12;101724.22;5040554;28;20117;-76
2022/01/10 10:53:40;;;;;;;17.00;7.20;;;;;;;5.84;63.17;101732.50;5039474;28;20754;-76
2022/01/10 10:56:06;;;;;;;15.52;6.32;;;;;;;5.87;62.64;101729.97;5043974;28;20029;-76
2022/01/10 10:58:32;;;;;;;12.63;5.50;;;;;;;5.70;63.43;101736.59;5042389;28;20414;-76
2022/01/10 11:01:02;;;;;;;12.48;5.35;;;;;;;5.85;62.06;101730.78;5043066;28;20029;-76
2022/01/10 11:03:28;;;;;;;11.27;5.05;;;;;;;5.74;63.63;101740.94;5044177;28;20158;-76
2022/01/10 11:05:59;;;;;;;16.88;8.63;;;;;;;5.82;63.86;101744.50;5040892;28;20740;-76
2022/01/10 11:08:31;;;;;;;23.40;9.73;;;;;;;5.81;63.38;101745.34;5043606;28;20039;-76
2022/01/10 11:10:58;;;;;;;18.85;7.35;;;;;;;5.83;63.16;101750.53;5044883;28;20028;-76
2022/01/10 11:13:24;;;;;;;15.90;6.13;;;;;;;5.85;63.60;101757.44;5043713;28;20100;-76
2022/01/10 11:15:52;;;;;;;17.50;7.57;;;;;;;5.90;63.34;101760.06;5047297;28;20033;-76
2022/01/10 11:18:20;;;;;;;20.92;8.75;;;;;;;5.87;63.33;101760.03;5011413;28;20034;-76
2022/01/10 11:20:51;;;;;;;32.45;11.20;;;;;;;5.99;62.18;101767.94;5041649;28;20032;-76
2022/01/10 11:23:17;;;;;;;29.08;11.70;;;;;;;6.06;62.30;101766.31;5044871;28;20032;-76
2022/01/10 11:25:42;;;;;;;20.35;8.57;;;;;;;5.97;62.22;101772.22;5046226;28;20033;-76
2022/01/10 11:28:12;;;;;;;17.60;8.32;;;;;;;6.07;63.25;101768.06;5047068;28;20025;-76
2022/01/10 11:30:44;;;;;;;17.52;8.63;;;;;;;6.17;60.80;101772.47;5043092;28;20033;-76
2022/01/10 11:33:11;;;;;;;17.75;7.70;;;;;;;6.00;61.81;101775.72;5044186;28;20033;-76
2022/01/10 11:35:36;;;;;;;23.05;9.15;;;;;;;6.02;62.25;101776.59;5044633;28;20037;-76
2022/01/10 11:38:25;;;;;;;16.33;7.40;;;;;;;6.18;61.95;101771.63;5049771;28;20061;-76
2022/01/10 11:41:01;;;;;;;16.30;6.97;;;;;;;6.33;61.74;101779.56;5043868;28;20041;-76
2022/01/10 11:43:28;;;;;;;15.82;7.45;;;;;;;6.32;61.29;101778.72;5029422;28;20064;-76